Time;durP1;ratioP1;P1;durP2;ratioP2;P2;SDS_P1;SDS_P2;PMS_P1;PMS_P2;Temp;Humidity;BMP_temperature;BMP_pressure;BME280_temperature;BME280_humidity;BME280_pressure;Samples;Min_cycle;Max_cycle;Signal;HPM_P1;HPM_P2
2023/05/04 00:01:37;;;;;;;7.63;3.00;;;9.70;91.90;;;;;;5032699;28;20351;-70
2023/05/04 00:04:03;;;;;;;5.13;2.70;;;9.70;91.80;;;;;;5032171;28;20089;-69
2023/05/04 00:06:28;;;;;;;12.48;3.05;;;9.60;92.00;;;;;;5032113;28;20040;-70
2023/05/04 00:08:54;;;;;;;7.07;3.20;;;9.70;92.10;;;;;;5031630;28;20029;-69
2023/05/04 00:11:20;;;;;;;8.13;3.10;;;9.60;92.20;;;;;;5032075;28;20046;-69
2023/05/04 00:13:45;;;;;;;15.95;5.72;;;9.60;92.20;;;;;;5032114;28;20561;-70
2023/05/04 00:16:11;;;;;;;12.10;5.22;;;9.60;92.20;;;;;;5031697;28;20095;-70
2023/05/04 00:18:38;;;;;;;7.95;3.80;;;9.70;92.30;;;;;;5031622;28;20084;-70
2023/05/04 00:21:04;;;;;;;7.53;3.10;;;9.60;92.30;;;;;;5031518;28;20463;-71
2023/05/04 00:23:29;;;;;;;9.95;3.10;;;9.60;92.50;;;;;;5031856;28;20057;-70
2023/05/04 00:25:57;;;;;;;9.25;3.70;;;9.70;92.70;;;;;;5014732;28;20447;-71
2023/05/04 00:28:23;;;;;;;7.70;3.55;;;9.60;92.40;;;;;;5031730;28;20044;-70
2023/05/04 00:30:51;;;;;;;12.10;3.17;;;9.60;92.50;;;;;;5014184;28;20047;-70
2023/05/04 00:33:17;;;;;;;11.32;3.33;;;9.50;92.60;;;;;;5031387;28;20121;-69
2023/05/04 00:35:42;;;;;;;5.95;3.13;;;9.50;92.70;;;;;;5014169;28;20127;-70
2023/05/04 00:38:08;;;;;;;8.25;3.25;;;9.50;92.90;;;;;;5031376;28;20021;-69
2023/05/04 00:40:34;;;;;;;10.52;3.75;;;9.50;93.00;;;;;;5031718;28;20047;-70
2023/05/04 00:43:00;;;;;;;6.78;3.42;;;9.40;93.00;;;;;;5031361;28;20486;-70
2023/05/04 00:45:26;;;;;;;7.10;2.97;;;9.30;93.20;;;;;;5013842;28;20037;-70
2023/05/04 00:47:52;;;;;;;5.38;3.08;;;9.10;93.40;;;;;;5031297;28;20357;-71
2023/05/04 00:50:18;;;;;;;5.85;3.15;;;9.10;93.50;;;;;;5031329;28;20029;-71
2023/05/04 00:52:45;;;;;;;7.82;3.30;;;9.00;93.70;;;;;;5031446;28;20025;-70
2023/05/04 00:55:13;;;;;;;10.13;3.30;;;9.10;93.60;;;;;;5031178;28;20486;-70
2023/05/04 00:57:40;;;;;;;10.20;3.83;;;9.10;93.60;;;;;;5031091;28;20044;-71
2023/05/04 01:00:07;;;;;;;6.40;2.88;;;9.10;93.60;;;;;;5030549;28;20034;-69
2023/05/04 01:02:33;;;;;;;9.93;3.60;;;9.10;93.40;;;;;;5031182;28;20083;-69
2023/05/04 01:04:59;;;;;;;7.45;3.28;;;9.00;93.60;;;;;;5031423;28;20056;-70
2023/05/04 01:07:42;;;;;;;11.68;3.30;;;9.00;93.70;;;;;;5030121;28;20037;-70
2023/05/04 01:10:12;;;;;;;6.93;3.40;;;8.90;93.90;;;;;;5030984;28;20484;-70
2023/05/04 01:12:43;;;;;;;9.38;3.20;;;8.90;94.00;;;;;;5030803;28;20598;-70
2023/05/04 01:15:10;;;;;;;9.00;3.40;;;8.90;94.00;;;;;;5031142;28;20128;-71
2023/05/04 01:17:36;;;;;;;9.45;3.55;;;8.90;94.00;;;;;;5030788;28;20427;-68
2023/05/04 01:20:02;;;;;;;6.18;3.08;;;8.80;94.00;;;;;;5030654;28;20025;-69
2023/05/04 01:22:28;;;;;;;5.20;2.75;;;8.80;94.20;;;;;;5031465;28;20351;-71
2023/05/04 01:24:54;;;;;;;5.30;3.28;;;8.80;94.10;;;;;;5030770;28;20026;-69
2023/05/04 01:27:39;;;;;;;6.18;2.65;;;8.70;94.30;;;;;;5030684;28;20034;-69
2023/05/04 01:30:12;;;;;;;10.20;2.85;;;8.70;94.50;;;;;;5029431;28;20042;-71
2023/05/04 01:32:40;;;;;;;6.57;2.97;;;8.70;94.60;;;;;;5030801;28;20428;-69
2023/05/04 01:35:07;;;;;;;6.32;2.45;;;8.70;94.60;;;;;;5029760;28;20037;-70
2023/05/04 01:37:33;;;;;;;7.60;2.80;;;8.60;94.60;;;;;;5011484;28;20455;-70
2023/05/04 01:39:59;;;;;;;5.50;2.65;;;8.60;94.50;;;;;;5026945;28;20088;-71
2023/05/04 01:42:24;;;;;;;9.23;3.25;;;8.50;94.60;;;;;;5018940;28;20527;-69
2023/05/04 01:44:50;;;;;;;10.27;3.20;;;8.60;94.80;;;;;;5017816;28;20053;-72
2023/05/04 01:47:16;;;;;;;7.28;3.47;;;8.60;94.70;;;;;;5028397;28;20021;-71
2023/05/04 01:49:42;;;;;;;13.20;3.15;;;8.60;94.60;;;;;;5011389;28;20100;-71
2023/05/04 01:52:07;;;;;;;5.40;2.53;;;8.60;94.70;;;;;;5028116;28;20383;-70
2023/05/04 01:54:33;;;;;;;9.43;2.65;;;8.60;94.70;;;;;;5000296;28;20104;-70
2023/05/04 01:57:00;;;;;;;11.93;2.78;;;8.70;94.40;;;;;;5018637;28;20494;-70
2023/05/04 01:59:26;;;;;;;14.02;3.25;;;8.70;94.50;;;;;;5026769;28;20061;-70
2023/05/04 02:01:51;;;;;;;4.45;2.30;;;8.70;94.50;;;;;;5011464;28;20053;-69
2023/05/04 02:04:17;;;;;;;9.48;3.47;;;8.50;94.70;;;;;;5029499;28;20036;-71
2023/05/04 02:06:43;;;;;;;9.65;2.97;;;8.40;94.80;;;;;;5016331;28;20034;-70
2023/05/04 02:09:08;;;;;;;4.65;2.83;;;8.30;95.00;;;;;;5019888;28;20052;-71
2023/05/04 02:11:34;;;;;;;8.75;2.65;;;8.40;95.10;;;;;;5026401;28;20113;-69
2023/05/04 02:14:00;;;;;;;9.30;3.10;;;8.30;95.20;;;;;;5014825;28;20367;-71
2023/05/04 02:16:25;;;;;;;7.25;2.25;;;8.30;95.20;;;;;;5034473;28;20371;-70
2023/05/04 02:18:51;;;;;;;11.18;3.45;;;8.30;95.10;;;;;;5034384;28;20044;-70
2023/05/04 02:21:17;;;;;;;8.65;2.85;;;8.30;95.20;;;;;;5034205;28;20038;-72
2023/05/04 02:23:42;;;;;;;6.68;3.17;;;8.30;95.00;;;;;;5034378;28;20041;-71
2023/05/04 02:26:08;;;;;;;9.23;3.17;;;8.30;95.20;;;;;;5034015;28;20033;-72
2023/05/04 02:28:33;;;;;;;7.20;2.78;;;8.20;95.40;;;;;;5034500;28;20029;-70
2023/05/04 02:30:59;;;;;;;6.07;2.90;;;8.20;95.20;;;;;;5034065;28;20471;-71
2023/05/04 02:33:25;;;;;;;8.82;3.28;;;8.20;95.30;;;;;;5033823;28;20247;-70
2023/05/04 02:35:50;;;;;;;9.77;2.55;;;8.00;95.50;;;;;;5016451;28;20037;-69
2023/05/04 02:38:16;;;;;;;5.35;3.33;;;8.00;95.70;;;;;;5033671;28;20026;-68
2023/05/04 02:40:42;;;;;;;9.20;3.28;;;8.00;95.80;;;;;;5034273;28;20581;-71
2023/05/04 02:43:07;;;;;;;6.55;2.97;;;8.00;95.80;;;;;;5033781;28;20033;-70
2023/05/04 02:45:34;;;;;;;6.88;3.20;;;7.90;95.90;;;;;;5015985;28;20068;-71
2023/05/04 02:47:59;;;;;;;9.52;3.00;;;7.90;95.80;;;;;;5033570;28;20033;-71
2023/05/04 02:50:25;;;;;;;7.25;2.95;;;7.90;95.80;;;;;;5016086;28;20053;-70
2023/05/04 02:52:51;;;;;;;9.57;2.85;;;7.90;95.60;;;;;;5016537;28;20025;-70
2023/05/04 02:55:16;;;;;;;6.47;2.45;;;7.90;95.70;;;;;;5033416;28;20613;-71
2023/05/04 02:57:42;;;;;;;6.47;2.58;;;7.90;95.70;;;;;;5033490;28;20029;-71
2023/05/04 03:00:08;;;;;;;8.23;3.78;;;7.90;95.80;;;;;;5033407;28;20116;-71
2023/05/04 03:02:34;;;;;;;8.48;2.83;;;7.90;95.90;;;;;;5033269;28;20044;-70
2023/05/04 03:04:59;;;;;;;7.60;2.70;;;8.00;95.70;;;;;;5033977;28;20025;-71
2023/05/04 03:07:26;;;;;;;10.35;3.20;;;8.00;95.60;;;;;;5033201;28;20037;-69
2023/05/04 03:09:52;;;;;;;9.40;2.45;;;7.90;95.60;;;;;;5033068;28;20647;-70
2023/05/04 03:12:18;;;;;;;8.52;3.33;;;7.90;95.70;;;;;;5015493;28;20091;-71
2023/05/04 03:14:45;;;;;;;6.22;2.53;;;7.90;95.70;;;;;;5027241;28;20076;-71
2023/05/04 03:17:10;;;;;;;9.05;2.72;;;7.80;95.80;;;;;;5013437;28;20013;-71
2023/05/04 03:19:36;;;;;;;7.55;3.00;;;7.80;96.00;;;;;;4996383;28;20424;-71
2023/05/04 03:22:02;;;;;;;12.52;3.05;;;7.70;96.00;;;;;;5013387;28;20036;-72
2023/05/04 03:24:27;;;;;;;9.35;2.95;;;7.70;96.30;;;;;;5012348;28;20038;-70
2023/05/04 03:26:53;;;;;;;9.70;2.83;;;7.70;96.30;;;;;;5013256;28;20033;-71
2023/05/04 03:29:19;;;;;;;5.53;2.92;;;7.60;96.30;;;;;;5013192;28;20046;-72
2023/05/04 03:31:44;;;;;;;7.68;2.88;;;7.60;96.40;;;;;;5013515;28;20022;-71
2023/05/04 03:34:11;;;;;;;7.38;2.38;;;7.70;96.50;;;;;;5013093;28;20041;-70
2023/05/04 03:36:37;;;;;;;13.88;3.05;;;7.60;96.40;;;;;;5012968;28;20121;-71
2023/05/04 03:39:03;;;;;;;10.40;3.13;;;7.70;96.50;;;;;;4995665;28;20103;-70
2023/05/04 03:41:28;;;;;;;7.28;2.35;;;7.70;96.50;;;;;;5016780;28;20038;-71
2023/05/04 03:43:54;;;;;;;9.82;2.80;;;8.00;95.70;;;;;;5033046;28;20025;-70
2023/05/04 03:46:20;;;;;;;4.38;2.17;;;8.20;95.20;;;;;;5013421;28;20114;-70
2023/05/04 03:48:45;;;;;;;5.03;2.55;;;8.20;95.40;;;;;;5009982;28;20044;-70
2023/05/04 03:51:11;;;;;;;7.88;2.65;;;8.10;95.50;;;;;;5022688;28;20037;-70
2023/05/04 03:53:37;;;;;;;12.38;3.22;;;8.20;95.20;;;;;;5017516;28;20048;-70
2023/05/04 03:56:02;;;;;;;6.57;2.58;;;8.30;94.90;;;;;;5031878;28;20029;-69
2023/05/04 03:58:28;;;;;;;6.35;2.83;;;8.40;94.70;;;;;;4995592;28;20041;-70
2023/05/04 04:00:54;;;;;;;11.10;4.07;;;8.40;94.60;;;;;;5028015;28;20030;-69
2023/05/04 04:03:19;;;;;;;8.27;3.10;;;8.50;94.80;;;;;;5004017;28;20033;-70
2023/05/04 04:05:45;;;;;;;8.55;3.17;;;8.50;94.60;;;;;;5018507;28;20033;-69
2023/05/04 04:08:13;;;;;;;13.23;3.28;;;8.50;94.60;;;;;;5030515;28;20413;-69
2023/05/04 04:10:40;;;;;;;9.00;2.83;;;8.60;94.40;;;;;;5012698;28;20013;-71
2023/05/04 04:13:05;;;;;;;7.07;2.95;;;8.60;94.40;;;;;;5029195;28;20044;-71
2023/05/04 04:15:31;;;;;;;5.63;2.85;;;8.60;94.50;;;;;;5019468;28;20033;-70
2023/05/04 04:17:57;;;;;;;7.60;2.60;;;8.70;94.60;;;;;;5020057;28;20344;-70
2023/05/04 04:20:22;;;;;;;11.18;3.10;;;8.60;95.00;;;;;;5028867;28;20121;-70
2023/05/04 04:22:49;;;;;;;10.32;3.08;;;8.40;95.20;;;;;;5012384;28;20030;-70
2023/05/04 04:25:14;;;;;;;12.90;3.13;;;8.50;95.30;;;;;;5012943;28;20037;-69
2023/05/04 04:27:40;;;;;;;14.30;5.20;;;8.60;95.00;;;;;;5018093;28;20030;-68
2023/05/04 04:30:06;;;;;;;8.35;2.60;;;8.70;95.00;;;;;;5020837;28;20069;-71
2023/05/04 04:32:32;;;;;;;8.40;2.97;;;8.60;95.30;;;;;;5027294;28;20040;-69
2023/05/04 04:34:59;;;;;;;9.55;3.08;;;8.60;95.20;;;;;;5011323;28;20480;-69
2023/05/04 04:37:25;;;;;;;15.20;3.53;;;8.70;94.90;;;;;;5014064;28;20483;-71
2023/05/04 04:39:50;;;;;;;11.90;4.63;;;8.70;94.80;;;;;;4999116;28;20041;-69
2023/05/04 04:42:16;;;;;;;7.20;2.42;;;8.80;95.00;;;;;;5004582;28;20041;-69
2023/05/04 04:44:42;;;;;;;13.40;4.60;;;8.80;94.90;;;;;;5025709;28;20430;-70
2023/05/04 04:47:08;;;;;;;12.00;3.70;;;8.80;95.10;;;;;;5012488;28;20033;-70
2023/05/04 04:49:33;;;;;;;15.98;3.40;;;8.90;95.00;;;;;;5031802;28;20029;-69
2023/05/04 04:52:00;;;;;;;11.10;3.60;;;8.90;94.90;;;;;;5015081;28;20030;-70
2023/05/04 04:54:26;;;;;;;21.25;4.28;;;8.90;94.90;;;;;;5023215;28;20041;-70
2023/05/04 04:56:52;;;;;;;12.02;3.30;;;8.90;94.70;;;;;;5006901;28;20081;-69
2023/05/04 04:59:19;;;;;;;8.80;3.97;;;9.00;95.10;;;;;;5013807;28;20113;-69
2023/05/04 05:01:45;;;;;;;7.50;3.33;;;8.90;95.10;;;;;;5031552;28;20172;-69
2023/05/04 05:04:10;;;;;;;10.80;3.65;;;9.00;94.90;;;;;;5013369;28;20471;-70
2023/05/04 05:06:36;;;;;;;15.32;4.20;;;9.00;94.80;;;;;;5024300;28;20363;-69
2023/05/04 05:09:02;;;;;;;10.15;3.85;;;9.10;94.60;;;;;;5022701;28;20093;-71
2023/05/04 05:11:28;;;;;;;18.05;4.70;;;9.20;94.70;;;;;;4997609;28;20037;-70
2023/05/04 05:13:54;;;;;;;11.43;4.75;;;9.20;94.60;;;;;;5031205;28;20418;-71
2023/05/04 05:16:19;;;;;;;12.10;4.97;;;9.20;94.80;;;;;;4994549;28;20140;-71
2023/05/04 05:18:45;;;;;;;19.58;4.43;;;9.20;94.70;;;;;;5025518;28;20036;-69
2023/05/04 05:21:11;;;;;;;10.45;4.10;;;9.20;94.80;;;;;;5021168;28;20037;-69
2023/05/04 05:23:36;;;;;;;9.52;3.90;;;9.30;94.50;;;;;;5015899;28;20033;-70
2023/05/04 05:26:02;;;;;;;15.48;4.00;;;9.50;94.30;;;;;;5030289;28;20026;-71
2023/05/04 05:28:28;;;;;;;19.90;4.47;;;9.50;94.40;;;;;;5011563;28;20030;-70
2023/05/04 05:30:54;;;;;;;11.48;4.40;;;9.60;94.00;;;;;;5008749;28;20542;-69
2023/05/04 05:33:20;;;;;;;10.43;3.58;;;9.70;94.00;;;;;;5019726;28;20038;-69
2023/05/04 05:35:45;;;;;;;13.25;3.83;;;9.80;93.70;;;;;;4999577;28;20285;-71
2023/05/04 05:38:11;;;;;;;9.15;3.80;;;9.90;93.70;;;;;;5028980;28;20022;-69
2023/05/04 05:40:37;;;;;;;11.23;3.83;;;10.00;93.20;;;;;;5011411;28;20018;-69
2023/05/04 05:43:04;;;;;;;15.45;4.20;;;10.00;93.20;;;;;;4993346;28;20117;-69
2023/05/04 05:45:30;;;;;;;17.63;4.70;;;10.00;93.10;;;;;;4993431;28;20025;-70
2023/05/04 05:47:55;;;;;;;12.10;3.80;;;10.10;93.00;;;;;;5010395;28;20060;-70
2023/05/04 05:50:22;;;;;;;11.63;3.50;;;10.20;92.80;;;;;;5011205;28;20026;-70
2023/05/04 05:52:48;;;;;;;13.75;3.22;;;10.30;92.40;;;;;;4993755;28;20109;-70
2023/05/04 05:55:14;;;;;;;12.18;4.10;;;10.50;92.30;;;;;;5010514;28;20441;-70
2023/05/04 05:57:39;;;;;;;10.35;2.97;;;10.60;92.20;;;;;;5010613;28;20034;-69
2023/05/04 06:00:06;;;;;;;15.93;3.75;;;10.60;92.20;;;;;;5019632;28;20029;-69
2023/05/04 06:02:31;;;;;;;18.65;4.93;;;10.70;92.00;;;;;;5026234;28;20034;-70
2023/05/04 06:04:57;;;;;;;14.93;3.20;;;10.80;91.80;;;;;;5010874;28;20156;-69
2023/05/04 06:07:23;;;;;;;18.55;3.40;;;10.90;91.70;;;;;;5029883;28;20114;-69
2023/05/04 06:09:49;;;;;;;15.23;3.40;;;10.90;91.90;;;;;;4998053;28;20421;-70
2023/05/04 06:12:16;;;;;;;18.83;3.33;;;11.00;91.50;;;;;;5003143;28;20041;-70
2023/05/04 06:14:41;;;;;;;12.27;3.55;;;11.10;91.50;;;;;;5024417;28;20073;-70
2023/05/04 06:17:07;;;;;;;13.43;3.65;;;11.10;91.20;;;;;;5011537;28;20058;-70
2023/05/04 06:19:35;;;;;;;12.93;3.95;;;11.30;91.40;;;;;;5030487;28;20025;-70
2023/05/04 06:22:01;;;;;;;6.07;3.47;;;11.40;91.10;;;;;;5014092;28;20099;-71
2023/05/04 06:24:28;;;;;;;15.40;4.90;;;11.40;91.00;;;;;;5021974;28;20037;-71
2023/05/04 06:26:54;;;;;;;26.33;8.40;;;11.50;91.00;;;;;;5022747;28;20073;-70
2023/05/04 06:29:20;;;;;;;29.00;10.60;;;11.50;90.90;;;;;;5014467;28;20050;-70
2023/05/04 06:31:46;;;;;;;26.10;11.52;;;11.70;91.00;;;;;;5030708;28;20037;-72
2023/05/04 06:34:11;;;;;;;24.25;8.95;;;11.90;91.00;;;;;;4994812;28;20037;-71
2023/05/04 06:36:37;;;;;;;22.45;8.98;;;12.00;90.80;;;;;;5006054;28;20025;-71
2023/05/04 06:39:03;;;;;;;22.83;8.73;;;12.20;90.80;;;;;;5021428;28;20053;-71
2023/05/04 06:41:28;;;;;;;28.35;9.80;;;12.50;90.50;;;;;;5014317;28;20026;-71
2023/05/04 06:43:56;;;;;;;26.77;9.80;;;12.70;90.30;;;;;;5030255;28;20058;-70
2023/05/04 06:46:22;;;;;;;31.70;11.23;;;12.80;89.60;;;;;;4993198;28;20100;-71
2023/05/04 06:48:48;;;;;;;31.98;12.57;;;13.10;89.10;;;;;;5025114;28;20034;-70
2023/05/04 06:51:14;;;;;;;18.88;10.13;;;13.40;88.40;;;;;;5019783;28;20068;-70
2023/05/04 06:53:40;;;;;;;25.63;9.70;;;13.70;88.00;;;;;;4998114;28;20033;-69
2023/05/04 06:56:06;;;;;;;16.77;8.50;;;14.00;86.80;;;;;;5029277;28;20033;-69
2023/05/04 06:58:32;;;;;;;20.23;8.10;;;14.20;85.80;;;;;;5011199;28;20033;-69
2023/05/04 07:00:58;;;;;;;13.05;5.97;;;14.40;85.40;;;;;;5013575;28;20026;-71
2023/05/04 07:03:23;;;;;;;18.30;4.97;;;14.60;84.20;;;;;;5013408;28;20034;-70
2023/05/04 07:05:49;;;;;;;12.40;4.70;;;14.80;83.20;;;;;;5013667;28;20052;-71
2023/05/04 07:08:16;;;;;;;18.73;4.95;;;14.90;82.80;;;;;;4996075;28;20364;-72
2023/05/04 07:10:43;;;;;;;19.60;4.72;;;15.00;82.50;;;;;;5014764;28;20022;-72
2023/05/04 07:13:09;;;;;;;13.38;5.03;;;15.10;81.70;;;;;;5013277;28;20037;-71
2023/05/04 07:15:34;;;;;;;13.13;4.43;;;15.30;81.40;;;;;;5013301;28;20069;-70
2023/05/04 07:18:00;;;;;;;17.40;4.80;;;15.40;81.20;;;;;;5013204;28;20119;-70
2023/05/04 07:20:26;;;;;;;11.65;5.15;;;15.40;80.80;;;;;;5013157;28;20030;-70
2023/05/04 07:22:55;;;;;;;11.82;3.15;;;15.20;81.10;;;;;;5013494;28;20033;-72
2023/05/04 07:25:24;;;;;;;7.10;3.10;;;15.30;80.70;;;;;;5013302;28;20034;-69
2023/05/04 07:27:50;;;;;;;8.98;3.00;;;15.30;80.50;;;;;;5012859;28;20037;-70
2023/05/04 07:30:16;;;;;;;10.35;3.70;;;15.30;80.20;;;;;;5012715;28;20050;-72
2023/05/04 07:32:42;;;;;;;9.65;3.00;;;15.30;80.10;;;;;;5012855;28;20413;-69
2023/05/04 07:35:08;;;;;;;17.77;2.83;;;15.50;80.30;;;;;;5013033;28;20119;-70
2023/05/04 07:37:34;;;;;;;8.57;2.92;;;15.60;80.00;;;;;;5013328;28;20022;-70
2023/05/04 07:40:00;;;;;;;10.52;2.88;;;15.60;79.40;;;;;;5012858;28;20367;-70
2023/05/04 07:42:27;;;;;;;15.27;3.63;;;15.80;79.80;;;;;;5012926;28;20030;-70
2023/05/04 07:44:53;;;;;;;15.68;3.17;;;16.00;79.20;;;;;;5013096;28;20088;-70
2023/05/04 07:47:19;;;;;;;12.45;3.72;;;15.90;78.60;;;;;;5014204;28;20022;-71
2023/05/04 07:49:44;;;;;;;13.10;3.72;;;15.90;78.90;;;;;;4995773;28;20026;-70
2023/05/04 07:52:11;;;;;;;11.77;3.22;;;16.00;78.80;;;;;;4995324;28;20026;-70
2023/05/04 07:54:37;;;;;;;11.50;2.70;;;16.30;78.40;;;;;;4995023;28;20120;-70
2023/05/04 07:57:02;;;;;;;14.02;3.60;;;16.40;77.50;;;;;;4994970;28;20150;-71
2023/05/04 07:59:29;;;;;;;16.58;3.35;;;16.50;77.40;;;;;;4995303;28;20042;-70
2023/05/04 08:01:55;;;;;;;19.23;3.72;;;16.60;77.40;;;;;;4995816;28;20026;-71
2023/05/04 08:04:21;;;;;;;10.70;3.03;;;16.70;77.00;;;;;;5012492;28;20036;-70
2023/05/04 08:06:48;;;;;;;7.00;2.97;;;16.80;76.10;;;;;;5012223;28;20034;-72
2023/05/04 08:09:17;;;;;;;11.23;3.03;;;16.90;76.30;;;;;;5012304;28;20045;-71
2023/05/04 08:11:44;;;;;;;8.88;3.15;;;17.00;75.60;;;;;;5012181;28;20123;-70
2023/05/04 08:14:10;;;;;;;12.30;2.88;;;17.20;75.90;;;;;;5011896;28;20026;-70
2023/05/04 08:16:36;;;;;;;15.95;3.22;;;17.10;73.90;;;;;;5012708;28;20033;-71
2023/05/04 08:19:01;;;;;;;12.02;2.80;;;17.40;75.10;;;;;;5012183;28;20029;-72
2023/05/04 08:21:27;;;;;;;11.45;2.72;;;17.60;74.30;;;;;;5011980;28;20060;-72
2023/05/04 08:23:53;;;;;;;11.30;2.60;;;18.10;73.60;;;;;;5011384;28;20072;-72
2023/05/04 08:26:19;;;;;;;10.30;2.50;;;18.40;72.80;;;;;;5011717;28;20122;-71
2023/05/04 08:28:45;;;;;;;12.23;2.85;;;18.80;73.00;;;;;;5012318;28;20022;-72
2023/05/04 08:31:11;;;;;;;7.60;3.65;;;19.20;70.40;;;;;;5011994;28;20026;-71
2023/05/04 08:33:37;;;;;;;9.25;2.90;;;19.90;69.70;;;;;;4994568;28;20124;-71
2023/05/04 08:36:04;;;;;;;6.43;2.50;;;20.60;67.80;;;;;;4994222;28;20184;-69
2023/05/04 08:38:30;;;;;;;12.13;2.80;;;20.80;66.70;;;;;;5011481;28;20022;-70
2023/05/04 08:40:56;;;;;;;8.40;2.65;;;20.90;65.80;;;;;;5012219;28;20037;-71
2023/05/04 08:43:22;;;;;;;9.43;3.03;;;20.80;64.40;;;;;;4994349;28;20053;-71
2023/05/04 08:45:49;;;;;;;13.07;2.95;;;21.00;65.10;;;;;;5011644;28;20117;-70
2023/05/04 08:48:14;;;;;;;12.50;3.25;;;21.10;64.60;;;;;;5011741;28;20047;-71
2023/05/04 08:50:41;;;;;;;9.45;2.60;;;21.30;63.50;;;;;;5011495;28;20030;-71
2023/05/04 08:53:11;;;;;;;12.10;3.58;;;21.40;62.70;;;;;;5011310;28;20352;-72
2023/05/04 08:55:38;;;;;;;11.65;3.80;;;21.50;62.00;;;;;;4994289;28;20428;-71
2023/05/04 08:58:08;;;;;;;7.75;3.22;;;21.50;62.10;;;;;;5011423;28;20029;-71
2023/05/04 09:00:35;;;;;;;10.05;3.05;;;21.60;62.30;;;;;;5011505;28;20034;-72
2023/05/04 09:03:03;;;;;;;8.18;3.00;;;21.60;61.10;;;;;;5011395;28;20060;-71
2023/05/04 09:05:30;;;;;;;10.90;2.78;;;21.70;60.40;;;;;;4993783;28;20040;-71
2023/05/04 09:07:57;;;;;;;9.87;2.77;;;21.70;59.60;;;;;;5011516;28;20116;-71
2023/05/04 09:10:23;;;;;;;10.13;3.90;;;21.60;58.80;;;;;;5011076;28;20468;-72
2023/05/04 09:12:52;;;;;;;13.85;3.47;;;21.80;58.90;;;;;;5010808;28;20476;-71
2023/05/04 09:15:19;;;;;;;6.68;2.85;;;21.90;58.70;;;;;;5011206;28;20754;-71
2023/05/04 09:17:57;;;;;;;10.77;2.90;;;22.50;58.80;;;;;;4994183;28;20046;-71
2023/05/04 09:20:23;;;;;;;5.70;2.67;;;22.70;58.90;;;;;;5014308;28;20092;-71
2023/05/04 09:23:03;;;;;;;11.07;3.13;;;23.20;57.20;;;;;;5030540;28;20021;-72
2023/05/04 09:25:28;;;;;;;7.25;2.60;;;23.50;56.60;;;;;;5030817;28;20037;-71
2023/05/04 09:27:55;;;;;;;8.55;2.60;;;23.60;55.20;;;;;;5030605;28;20048;-71
2023/05/04 09:30:21;;;;;;;6.32;2.35;;;23.70;55.20;;;;;;5030321;28;20045;-73
2023/05/04 09:32:48;;;;;;;10.13;3.55;;;23.90;54.60;;;;;;5030510;28;20468;-72
2023/05/04 09:35:17;;;;;;;8.98;3.25;;;24.20;53.80;;;;;;5030896;28;20334;-72
2023/05/04 09:37:47;;;;;;;10.52;3.05;;;24.00;52.50;;;;;;5030971;28;20444;-72
2023/05/04 09:40:13;;;;;;;9.60;2.60;;;24.60;53.00;;;;;;5012954;28;20120;-73
2023/05/04 09:42:39;;;;;;;7.68;2.80;;;25.40;52.20;;;;;;5030618;28;20364;-71
2023/05/04 09:45:12;;;;;;;8.13;2.90;;;25.50;50.10;;;;;;5030315;28;20476;-71
2023/05/04 09:47:39;;;;;;;11.20;2.97;;;25.60;49.30;;;;;;5030442;28;20072;-71
2023/05/04 09:50:16;;;;;;;11.70;3.40;;;24.90;49.20;;;;;;5013042;28;20026;-71
2023/05/04 09:52:43;;;;;;;16.43;3.13;;;24.70;49.60;;;;;;5031901;28;20025;-72
2023/05/04 09:55:14;;;;;;;8.25;2.40;;;25.00;49.90;;;;;;5030292;28;20026;-71
2023/05/04 09:57:41;;;;;;;7.50;3.08;;;25.10;49.50;;;;;;5030331;28;20025;-72
2023/05/04 10:00:10;;;;;;;8.37;2.77;;;25.00;49.20;;;;;;5030343;28;20042;-72
2023/05/04 10:02:36;;;;;;;14.45;7.82;;;25.10;49.50;;;;;;5012664;28;20320;-71
2023/05/04 10:05:05;;;;;;;29.05;13.85;;;24.80;49.30;;;;;;5029959;28;20105;-70
2023/05/04 10:07:32;;;;;;;14.60;4.90;;;25.40;48.50;;;;;;5013128;28;20025;-71
2023/05/04 10:10:00;;;;;;;10.10;3.28;;;25.30;48.50;;;;;;5030959;28;20091;-71
2023/05/04 10:12:26;;;;;;;9.05;2.50;;;24.80;48.90;;;;;;5030141;28;20100;-72
2023/05/04 10:14:52;;;;;;;12.88;4.55;;;24.70;49.20;;;;;;5029902;28;20045;-72
2023/05/04 10:17:26;;;;;;;7.60;2.53;;;24.50;49.10;;;;;;5030283;28;20481;-71
2023/05/04 10:20:29;;;;;;;8.60;2.95;;;24.60;48.90;;;;;;5030835;28;20026;-71
2023/05/04 10:23:25;;;;;;;12.52;2.60;;;24.50;48.20;;;;;;5012617;28;20486;-72
2023/05/04 10:25:58;;;;;;;9.73;2.40;;;24.00;49.20;;;;;;5030257;28;20418;-72
2023/05/04 10:28:44;;;;;;;6.72;2.15;;;24.00;49.30;;;;;;5012682;28;20125;-73
2023/05/04 10:31:10;;;;;;;7.28;2.53;;;24.00;49.10;;;;;;4990721;28;20472;-72
2023/05/04 10:33:42;;;;;;;4.60;2.30;;;23.80;49.20;;;;;;4992030;28;20030;-73
2023/05/04 10:36:10;;;;;;;11.93;7.68;;;23.40;48.70;;;;;;4993363;28;20488;-70
2023/05/04 10:38:38;;;;;;;11.18;3.70;;;23.50;49.00;;;;;;4995709;28;20026;-72
2023/05/04 10:41:17;;;;;;;8.05;2.80;;;23.20;48.50;;;;;;4994369;28;20041;-72
2023/05/04 10:43:49;;;;;;;7.78;2.38;;;23.10;48.60;;;;;;4994901;28;20026;-71
2023/05/04 10:46:22;;;;;;;6.70;2.55;;;23.10;48.80;;;;;;4994478;28;20353;-70
2023/05/04 10:48:49;;;;;;;6.72;2.45;;;22.80;48.70;;;;;;4994254;28;20425;-71
2023/05/04 10:51:21;;;;;;;7.53;2.10;;;22.70;49.20;;;;;;4994325;28;20117;-72
2023/05/04 10:53:47;;;;;;;8.13;2.13;;;22.60;48.70;;;;;;4994189;28;20204;-71
2023/05/04 10:56:23;;;;;;;8.20;2.50;;;22.60;48.80;;;;;;4994079;28;20026;-72
2023/05/04 10:58:49;;;;;;;8.63;2.53;;;22.40;49.40;;;;;;4995044;28;20030;-71
2023/05/04 11:01:15;;;;;;;5.03;2.50;;;22.30;49.70;;;;;;4993143;28;20034;-71
2023/05/04 11:03:41;;;;;;;5.82;2.30;;;22.60;49.30;;;;;;4994097;28;20046;-71
2023/05/04 11:06:23;;;;;;;9.13;2.95;;;22.60;49.70;;;;;;4993063;28;20031;-72
2023/05/04 11:09:01;;;;;;;8.90;2.63;;;22.40;49.50;;;;;;4993474;28;20067;-71
2023/05/04 11:11:26;;;;;;;7.40;2.95;;;22.10;48.90;;;;;;4993644;28;20041;-70
2023/05/04 11:13:53;;;;;;;11.02;3.00;;;22.10;49.40;;;;;;4994203;28;20034;-71
2023/05/04 11:16:24;;;;;;;10.50;2.90;;;21.90;50.00;;;;;;4994395;28;20041;-71
2023/05/04 11:18:50;;;;;;;10.73;2.92;;;21.90;50.30;;;;;;4994085;28;20034;-70
2023/05/04 11:21:25;;;;;;;10.48;2.50;;;21.90;49.90;;;;;;4993998;28;20077;-71
2023/05/04 11:23:58;;;;;;;9.88;2.70;;;21.90;50.50;;;;;;4993866;28;20487;-70
2023/05/04 11:26:25;;;;;;;6.80;2.47;;;21.90;50.40;;;;;;4993723;28;20053;-72
2023/05/04 11:28:51;;;;;;;9.05;2.65;;;21.90;50.60;;;;;;4995861;28;20027;-70
2023/05/04 11:31:18;;;;;;;6.47;3.13;;;21.80;51.00;;;;;;5032912;28;20037;-71
2023/05/04 11:33:47;;;;;;;10.03;2.67;;;21.70;50.90;;;;;;5015403;28;20039;-70
2023/05/04 11:36:13;;;;;;;7.63;2.45;;;21.70;50.60;;;;;;5032929;28;20278;-70
2023/05/04 11:38:39;;;;;;;5.30;2.45;;;21.70;50.80;;;;;;5014968;28;20064;-72
2023/05/04 11:41:04;;;;;;;10.73;2.25;;;21.70;51.20;;;;;;5033160;28;20021;-71
2023/05/04 11:43:32;;;;;;;5.07;1.70;;;21.70;51.10;;;;;;5032961;28;20025;-71
2023/05/04 11:45:59;;;;;;;8.13;2.17;;;21.80;51.60;;;;;;5031966;28;20044;-71
2023/05/04 11:48:26;;;;;;;8.40;2.30;;;21.70;51.60;;;;;;5032726;28;20113;-70
2023/05/04 11:50:54;;;;;;;6.20;2.33;;;21.70;51.40;;;;;;5032487;28;20037;-71
2023/05/04 11:53:21;;;;;;;5.40;2.58;;;21.70;51.60;;;;;;5032311;28;20025;-70
2023/05/04 11:55:47;;;;;;;4.70;2.42;;;21.70;51.50;;;;;;5032641;28;20043;-71
2023/05/04 11:58:13;;;;;;;6.50;2.60;;;21.70;51.20;;;;;;5032473;28;20543;-69
2023/05/04 12:00:41;;;;;;;9.90;2.30;;;21.70;51.70;;;;;;5032407;28;20032;-70
2023/05/04 12:03:22;;;;;;;6.82;2.20;;;21.70;51.50;;;;;;5032172;28;20049;-70
2023/05/04 12:05:50;;;;;;;5.82;2.40;;;21.80;51.50;;;;;;5032102;28;20042;-69
2023/05/04 12:08:40;;;;;;;9.35;2.47;;;21.80;51.30;;;;;;5031976;28;20103;-71
2023/05/04 12:11:24;;;;;;;9.02;2.50;;;21.90;51.50;;;;;;5032012;28;20486;-70
2023/05/04 12:14:12;;;;;;;5.00;1.95;;;21.70;51.10;;;;;;5032998;28;20018;-71
2023/05/04 12:16:39;;;;;;;10.32;2.42;;;21.70;51.20;;;;;;5032634;28;20029;-70
2023/05/04 12:19:09;;;;;;;9.20;3.10;;;21.70;51.80;;;;;;5032460;28;20036;-70
2023/05/04 12:21:35;;;;;;;5.78;1.95;;;21.60;51.10;;;;;;5032041;28;20053;-71
2023/05/04 12:24:02;;;;;;;7.30;2.30;;;21.50;50.90;;;;;;5014221;28;20337;-72
2023/05/04 12:26:29;;;;;;;6.85;2.22;;;21.60;50.80;;;;;;5032149;28;20064;-70
2023/05/04 12:28:55;;;;;;;4.22;1.92;;;21.40;50.80;;;;;;5032226;28;20360;-70
2023/05/04 12:31:21;;;;;;;5.78;2.08;;;21.40;51.10;;;;;;5014192;28;20034;-70
2023/05/04 12:33:49;;;;;;;7.43;2.17;;;21.40;51.30;;;;;;5031436;28;20099;-71
2023/05/04 12:36:16;;;;;;;5.53;2.47;;;21.40;51.20;;;;;;5031623;28;20025;-71
2023/05/04 12:38:41;;;;;;;5.05;1.92;;;21.50;50.70;;;;;;5032061;28;20390;-71
2023/05/04 12:41:09;;;;;;;4.85;2.03;;;21.40;51.00;;;;;;5032285;28;20110;-70
2023/05/04 12:43:35;;;;;;;;;;;21.40;51.00;;;;;;5014973;28;20514;-71
2023/05/04 12:46:01;;;;;;;5.97;2.28;;;21.40;51.30;;;;;;5013938;28;19909;-71
2023/05/04 12:48:28;;;;;;;6.60;2.05;;;21.40;51.40;;;;;;5031384;28;20045;-69